sensor_id;sensor_type;location;lat;lon;timestamp;P1;durP1;ratioP1;P2;durP2;ratioP2
12228;SDS011;6177;52.402;9.800;2024-03-07T00:02:15;14.33;;;13.13;;
12228;SDS011;6177;52.402;9.800;2024-03-07T00:04:42;14.53;;;13.07;;
12228;SDS011;6177;52.402;9.800;2024-03-07T00:07:08;13.23;;;12.10;;
12228;SDS011;6177;52.402;9.800;2024-03-07T00:09:34;13.30;;;11.93;;
12228;SDS011;6177;52.402;9.800;2024-03-07T00:12:00;13.10;;;11.90;;
12228;SDS011;6177;52.402;9.800;2024-03-07T00:14:27;12.60;;;11.37;;
12228;SDS011;6177;52.402;9.800;2024-03-07T00:16:56;13.33;;;12.00;;
12228;SDS011;6177;52.402;9.800;2024-03-07T00:19:22;13.10;;;11.93;;
12228;SDS011;6177;52.402;9.800;2024-03-07T00:21:52;13.07;;;11.73;;
12228;SDS011;6177;52.402;9.800;2024-03-07T00:24:18;13.70;;;11.97;;
12228;SDS011;6177;52.402;9.800;2024-03-07T00:26:44;12.43;;;11.40;;
12228;SDS011;6177;52.402;9.800;2024-03-07T00:29:10;12.67;;;11.47;;
12228;SDS011;6177;52.402;9.800;2024-03-07T00:31:36;12.93;;;11.53;;
12228;SDS011;6177;52.402;9.800;2024-03-07T00:34:02;12.50;;;11.40;;
12228;SDS011;6177;52.402;9.800;2024-03-07T00:36:27;13.00;;;11.83;;
12228;SDS011;6177;52.402;9.800;2024-03-07T00:38:53;13.17;;;11.87;;
12228;SDS011;6177;52.402;9.800;2024-03-07T00:41:18;12.00;;;10.77;;
12228;SDS011;6177;52.402;9.800;2024-03-07T00:43:44;13.93;;;11.33;;
12228;SDS011;6177;52.402;9.800;2024-03-07T00:46:10;13.37;;;12.00;;
12228;SDS011;6177;52.402;9.800;2024-03-07T00:48:37;12.50;;;11.30;;
12228;SDS011;6177;52.402;9.800;2024-03-07T00:51:03;13.73;;;12.53;;
12228;SDS011;6177;52.402;9.800;2024-03-07T00:53:29;12.90;;;11.77;;
12228;SDS011;6177;52.402;9.800;2024-03-07T00:55:55;12.50;;;11.30;;
12228;SDS011;6177;52.402;9.800;2024-03-07T00:58:21;12.70;;;11.60;;
12228;SDS011;6177;52.402;9.800;2024-03-07T01:00:47;13.60;;;12.20;;
12228;SDS011;6177;52.402;9.800;2024-03-07T01:03:12;13.27;;;12.07;;
12228;SDS011;6177;52.402;9.800;2024-03-07T01:05:42;12.77;;;11.63;;
12228;SDS011;6177;52.402;9.800;2024-03-07T01:08:07;13.53;;;12.30;;
12228;SDS011;6177;52.402;9.800;2024-03-07T01:10:33;12.80;;;11.70;;
12228;SDS011;6177;52.402;9.800;2024-03-07T01:12:59;13.30;;;12.20;;
12228;SDS011;6177;52.402;9.800;2024-03-07T01:15:31;12.83;;;11.63;;
12228;SDS011;6177;52.402;9.800;2024-03-07T01:17:57;12.70;;;11.70;;
12228;SDS011;6177;52.402;9.800;2024-03-07T01:20:23;12.70;;;11.40;;
12228;SDS011;6177;52.402;9.800;2024-03-07T01:22:53;13.00;;;11.80;;
12228;SDS011;6177;52.402;9.800;2024-03-07T01:25:19;12.93;;;11.80;;
12228;SDS011;6177;52.402;9.800;2024-03-07T01:27:46;13.17;;;12.07;;
12228;SDS011;6177;52.402;9.800;2024-03-07T01:30:12;13.33;;;12.23;;
12228;SDS011;6177;52.402;9.800;2024-03-07T01:32:38;13.63;;;12.33;;
12228;SDS011;6177;52.402;9.800;2024-03-07T01:35:04;14.10;;;12.87;;
12228;SDS011;6177;52.402;9.800;2024-03-07T01:37:32;15.50;;;13.80;;
12228;SDS011;6177;52.402;9.800;2024-03-07T01:39:58;14.13;;;12.83;;
12228;SDS011;6177;52.402;9.800;2024-03-07T01:42:23;14.87;;;13.30;;
12228;SDS011;6177;52.402;9.800;2024-03-07T01:44:50;14.63;;;13.23;;
12228;SDS011;6177;52.402;9.800;2024-03-07T01:47:17;14.07;;;12.77;;
12228;SDS011;6177;52.402;9.800;2024-03-07T01:49:43;12.97;;;11.87;;
12228;SDS011;6177;52.402;9.800;2024-03-07T01:52:08;14.70;;;13.33;;
12228;SDS011;6177;52.402;9.800;2024-03-07T01:54:34;14.17;;;12.87;;
12228;SDS011;6177;52.402;9.800;2024-03-07T01:57:00;14.50;;;13.13;;
12228;SDS011;6177;52.402;9.800;2024-03-07T01:59:26;13.43;;;12.20;;
12228;SDS011;6177;52.402;9.800;2024-03-07T02:01:55;15.63;;;14.17;;
12228;SDS011;6177;52.402;9.800;2024-03-07T02:04:21;15.27;;;13.87;;
12228;SDS011;6177;52.402;9.800;2024-03-07T02:06:49;16.10;;;14.40;;
12228;SDS011;6177;52.402;9.800;2024-03-07T02:09:15;15.73;;;13.50;;
12228;SDS011;6177;52.402;9.800;2024-03-07T02:11:41;15.70;;;14.10;;
12228;SDS011;6177;52.402;9.800;2024-03-07T02:14:06;14.77;;;13.20;;
12228;SDS011;6177;52.402;9.800;2024-03-07T02:16:32;15.07;;;13.47;;
12228;SDS011;6177;52.402;9.800;2024-03-07T02:18:58;15.13;;;13.63;;
12228;SDS011;6177;52.402;9.800;2024-03-07T02:21:25;15.60;;;14.13;;
12228;SDS011;6177;52.402;9.800;2024-03-07T02:23:50;14.43;;;13.13;;
12228;SDS011;6177;52.402;9.800;2024-03-07T02:26:16;14.70;;;13.40;;
12228;SDS011;6177;52.402;9.800;2024-03-07T02:28:42;15.20;;;13.80;;
12228;SDS011;6177;52.402;9.800;2024-03-07T02:31:07;14.93;;;13.63;;
12228;SDS011;6177;52.402;9.800;2024-03-07T02:33:33;15.07;;;13.67;;
12228;SDS011;6177;52.402;9.800;2024-03-07T02:35:58;15.77;;;14.27;;
12228;SDS011;6177;52.402;9.800;2024-03-07T02:38:24;16.73;;;15.13;;
12228;SDS011;6177;52.402;9.800;2024-03-07T02:40:49;16.03;;;14.23;;
12228;SDS011;6177;52.402;9.800;2024-03-07T02:43:15;15.70;;;14.30;;
12228;SDS011;6177;52.402;9.800;2024-03-07T02:45:41;15.87;;;14.30;;
12228;SDS011;6177;52.402;9.800;2024-03-07T02:48:07;15.63;;;14.13;;
12228;SDS011;6177;52.402;9.800;2024-03-07T02:50:37;16.40;;;14.70;;
12228;SDS011;6177;52.402;9.800;2024-03-07T02:53:04;15.43;;;13.93;;
12228;SDS011;6177;52.402;9.800;2024-03-07T02:55:30;15.93;;;14.33;;
12228;SDS011;6177;52.402;9.800;2024-03-07T02:57:59;16.77;;;15.27;;
12228;SDS011;6177;52.402;9.800;2024-03-07T03:00:25;16.70;;;15.10;;
12228;SDS011;6177;52.402;9.800;2024-03-07T03:02:55;16.37;;;14.87;;
12228;SDS011;6177;52.402;9.800;2024-03-07T03:05:21;17.03;;;15.27;;
12228;SDS011;6177;52.402;9.800;2024-03-07T03:07:47;16.67;;;15.07;;
12228;SDS011;6177;52.402;9.800;2024-03-07T03:10:22;17.47;;;15.73;;
12228;SDS011;6177;52.402;9.800;2024-03-07T03:12:54;16.73;;;15.13;;
12228;SDS011;6177;52.402;9.800;2024-03-07T03:15:23;16.07;;;14.37;;
12228;SDS011;6177;52.402;9.800;2024-03-07T03:17:48;15.70;;;14.10;;
12228;SDS011;6177;52.402;9.800;2024-03-07T03:20:14;15.73;;;14.33;;
12228;SDS011;6177;52.402;9.800;2024-03-07T03:23:02;16.17;;;14.67;;
12228;SDS011;6177;52.402;9.800;2024-03-07T03:25:28;16.17;;;14.57;;
12228;SDS011;6177;52.402;9.800;2024-03-07T03:27:55;15.53;;;14.13;;
12228;SDS011;6177;52.402;9.800;2024-03-07T03:30:20;16.13;;;14.63;;
12228;SDS011;6177;52.402;9.800;2024-03-07T03:32:49;15.90;;;14.40;;
12228;SDS011;6177;52.402;9.800;2024-03-07T03:35:14;15.93;;;14.27;;
12228;SDS011;6177;52.402;9.800;2024-03-07T03:37:42;15.43;;;14.03;;
12228;SDS011;6177;52.402;9.800;2024-03-07T03:40:11;15.47;;;14.07;;
12228;SDS011;6177;52.402;9.800;2024-03-07T03:42:38;15.43;;;13.83;;
12228;SDS011;6177;52.402;9.800;2024-03-07T03:45:05;16.27;;;14.80;;
12228;SDS011;6177;52.402;9.800;2024-03-07T03:47:38;15.30;;;13.83;;
12228;SDS011;6177;52.402;9.800;2024-03-07T03:50:04;16.80;;;15.30;;
12228;SDS011;6177;52.402;9.800;2024-03-07T03:52:30;18.23;;;16.47;;
12228;SDS011;6177;52.402;9.800;2024-03-07T03:54:57;20.03;;;18.03;;
12228;SDS011;6177;52.402;9.800;2024-03-07T03:57:24;20.43;;;18.43;;
12228;SDS011;6177;52.402;9.800;2024-03-07T03:59:52;19.33;;;17.43;;
12228;SDS011;6177;52.402;9.800;2024-03-07T04:02:20;33.30;;;29.60;;
12228;SDS011;6177;52.402;9.800;2024-03-07T04:04:47;27.03;;;24.17;;
12228;SDS011;6177;52.402;9.800;2024-03-07T04:07:17;26.27;;;23.47;;
12228;SDS011;6177;52.402;9.800;2024-03-07T04:09:43;22.27;;;20.07;;
12228;SDS011;6177;52.402;9.800;2024-03-07T04:12:10;23.40;;;21.07;;
12228;SDS011;6177;52.402;9.800;2024-03-07T04:14:39;18.23;;;16.43;;
12228;SDS011;6177;52.402;9.800;2024-03-07T04:17:09;17.07;;;15.50;;
12228;SDS011;6177;52.402;9.800;2024-03-07T04:19:39;17.30;;;15.53;;
12228;SDS011;6177;52.402;9.800;2024-03-07T04:22:05;18.67;;;16.90;;
12228;SDS011;6177;52.402;9.800;2024-03-07T04:24:31;17.77;;;16.07;;
12228;SDS011;6177;52.402;9.800;2024-03-07T04:26:58;18.67;;;16.87;;
12228;SDS011;6177;52.402;9.800;2024-03-07T04:29:25;18.20;;;16.50;;
12228;SDS011;6177;52.402;9.800;2024-03-07T04:31:52;19.03;;;17.23;;
12228;SDS011;6177;52.402;9.800;2024-03-07T04:34:17;17.80;;;16.00;;
12228;SDS011;6177;52.402;9.800;2024-03-07T04:36:44;17.77;;;16.17;;
12228;SDS011;6177;52.402;9.800;2024-03-07T04:39:09;20.63;;;18.53;;
12228;SDS011;6177;52.402;9.800;2024-03-07T04:41:48;37.63;;;31.30;;
12228;SDS011;6177;52.402;9.800;2024-03-07T04:44:13;48.60;;;43.30;;
12228;SDS011;6177;52.402;9.800;2024-03-07T04:46:39;31.13;;;27.97;;
12228;SDS011;6177;52.402;9.800;2024-03-07T04:49:08;19.07;;;17.17;;
12228;SDS011;6177;52.402;9.800;2024-03-07T04:51:34;19.20;;;17.30;;
12228;SDS011;6177;52.402;9.800;2024-03-07T04:54:00;19.63;;;17.83;;
12228;SDS011;6177;52.402;9.800;2024-03-07T04:56:25;19.73;;;17.83;;
12228;SDS011;6177;52.402;9.800;2024-03-07T04:58:51;19.37;;;17.47;;
12228;SDS011;6177;52.402;9.800;2024-03-07T05:01:18;21.03;;;18.83;;
12228;SDS011;6177;52.402;9.800;2024-03-07T05:03:43;20.93;;;18.73;;
12228;SDS011;6177;52.402;9.800;2024-03-07T05:06:09;20.80;;;18.70;;
12228;SDS011;6177;52.402;9.800;2024-03-07T05:08:34;21.57;;;19.27;;
12228;SDS011;6177;52.402;9.800;2024-03-07T05:11:01;21.90;;;19.70;;
12228;SDS011;6177;52.402;9.800;2024-03-07T05:13:26;21.03;;;18.87;;
12228;SDS011;6177;52.402;9.800;2024-03-07T05:15:52;20.90;;;18.83;;
12228;SDS011;6177;52.402;9.800;2024-03-07T05:18:18;22.93;;;18.80;;
12228;SDS011;6177;52.402;9.800;2024-03-07T05:20:43;22.83;;;20.53;;
12228;SDS011;6177;52.402;9.800;2024-03-07T05:23:09;39.03;;;34.23;;
12228;SDS011;6177;52.402;9.800;2024-03-07T05:25:36;24.27;;;21.27;;
12228;SDS011;6177;52.402;9.800;2024-03-07T05:28:01;20.63;;;18.63;;
12228;SDS011;6177;52.402;9.800;2024-03-07T05:30:27;21.60;;;19.40;;
12228;SDS011;6177;52.402;9.800;2024-03-07T05:32:54;22.33;;;20.13;;
12228;SDS011;6177;52.402;9.800;2024-03-07T05:35:21;23.97;;;21.10;;
12228;SDS011;6177;52.402;9.800;2024-03-07T05:37:47;23.90;;;21.10;;
12228;SDS011;6177;52.402;9.800;2024-03-07T05:40:12;23.60;;;20.67;;
12228;SDS011;6177;52.402;9.800;2024-03-07T05:42:38;23.70;;;21.20;;
12228;SDS011;6177;52.402;9.800;2024-03-07T05:45:04;26.53;;;20.77;;
12228;SDS011;6177;52.402;9.800;2024-03-07T05:47:33;29.70;;;22.53;;
12228;SDS011;6177;52.402;9.800;2024-03-07T05:49:59;34.30;;;24.40;;
12228;SDS011;6177;52.402;9.800;2024-03-07T05:52:24;30.57;;;24.23;;
12228;SDS011;6177;52.402;9.800;2024-03-07T05:54:50;32.90;;;25.23;;
12228;SDS011;6177;52.402;9.800;2024-03-07T05:57:15;29.17;;;24.63;;
12228;SDS011;6177;52.402;9.800;2024-03-07T05:59:41;31.80;;;24.87;;
12228;SDS011;6177;52.402;9.800;2024-03-07T06:02:07;34.47;;;25.83;;
12228;SDS011;6177;52.402;9.800;2024-03-07T06:04:32;37.23;;;24.97;;
12228;SDS011;6177;52.402;9.800;2024-03-07T06:06:59;34.97;;;26.40;;
12228;SDS011;6177;52.402;9.800;2024-03-07T06:09:25;37.50;;;26.17;;
12228;SDS011;6177;52.402;9.800;2024-03-07T06:11:51;37.70;;;25.67;;
12228;SDS011;6177;52.402;9.800;2024-03-07T06:14:17;35.40;;;26.77;;
12228;SDS011;6177;52.402;9.800;2024-03-07T06:16:43;39.40;;;27.33;;
12228;SDS011;6177;52.402;9.800;2024-03-07T06:19:08;37.00;;;27.40;;
12228;SDS011;6177;52.402;9.800;2024-03-07T06:21:36;41.83;;;27.57;;
12228;SDS011;6177;52.402;9.800;2024-03-07T06:24:02;42.90;;;28.60;;
12228;SDS011;6177;52.402;9.800;2024-03-07T06:26:29;47.00;;;29.20;;
12228;SDS011;6177;52.402;9.800;2024-03-07T06:29:14;41.57;;;30.07;;
12228;SDS011;6177;52.402;9.800;2024-03-07T06:31:41;46.67;;;30.93;;
12228;SDS011;6177;52.402;9.800;2024-03-07T06:34:08;53.83;;;33.13;;
12228;SDS011;6177;52.402;9.800;2024-03-07T06:36:34;49.43;;;31.53;;
12228;SDS011;6177;52.402;9.800;2024-03-07T06:39:00;49.27;;;31.43;;
12228;SDS011;6177;52.402;9.800;2024-03-07T06:41:26;47.37;;;31.43;;
12228;SDS011;6177;52.402;9.800;2024-03-07T06:43:52;52.93;;;31.47;;
12228;SDS011;6177;52.402;9.800;2024-03-07T06:46:20;62.63;;;33.80;;
12228;SDS011;6177;52.402;9.800;2024-03-07T06:48:46;50.37;;;32.00;;
12228;SDS011;6177;52.402;9.800;2024-03-07T06:51:11;56.90;;;33.93;;
12228;SDS011;6177;52.402;9.800;2024-03-07T06:53:38;49.40;;;31.83;;
12228;SDS011;6177;52.402;9.800;2024-03-07T06:56:04;53.47;;;33.23;;
12228;SDS011;6177;52.402;9.800;2024-03-07T06:58:31;47.40;;;32.10;;
12228;SDS011;6177;52.402;9.800;2024-03-07T07:00:57;49.13;;;31.57;;
12228;SDS011;6177;52.402;9.800;2024-03-07T07:03:24;58.20;;;33.23;;
12228;SDS011;6177;52.402;9.800;2024-03-07T07:05:50;48.93;;;31.70;;
12228;SDS011;6177;52.402;9.800;2024-03-07T07:08:16;44.37;;;31.33;;
12228;SDS011;6177;52.402;9.800;2024-03-07T07:10:41;53.17;;;31.67;;
12228;SDS011;6177;52.402;9.800;2024-03-07T07:13:08;44.77;;;30.30;;
12228;SDS011;6177;52.402;9.800;2024-03-07T07:15:34;43.63;;;30.67;;
12228;SDS011;6177;52.402;9.800;2024-03-07T07:18:00;42.30;;;29.03;;
12228;SDS011;6177;52.402;9.800;2024-03-07T07:20:27;45.23;;;29.17;;
12228;SDS011;6177;52.402;9.800;2024-03-07T07:22:53;41.07;;;27.57;;
12228;SDS011;6177;52.402;9.800;2024-03-07T07:25:18;43.13;;;29.10;;
12228;SDS011;6177;52.402;9.800;2024-03-07T07:27:46;44.67;;;30.60;;
12228;SDS011;6177;52.402;9.800;2024-03-07T07:30:12;42.50;;;28.83;;
12228;SDS011;6177;52.402;9.800;2024-03-07T07:32:39;38.90;;;29.03;;
12228;SDS011;6177;52.402;9.800;2024-03-07T07:35:05;40.63;;;27.93;;
12228;SDS011;6177;52.402;9.800;2024-03-07T07:40:04;46.00;;;29.27;;
12228;SDS011;6177;52.402;9.800;2024-03-07T07:42:37;41.83;;;28.37;;
12228;SDS011;6177;52.402;9.800;2024-03-07T07:45:07;41.27;;;29.33;;
12228;SDS011;6177;52.402;9.800;2024-03-07T07:50:06;39.53;;;28.43;;
12228;SDS011;6177;52.402;9.800;2024-03-07T07:52:44;39.40;;;28.07;;
12228;SDS011;6177;52.402;9.800;2024-03-07T07:55:17;36.23;;;26.80;;
12228;SDS011;6177;52.402;9.800;2024-03-07T07:57:43;34.50;;;27.03;;
12228;SDS011;6177;52.402;9.800;2024-03-07T08:00:10;41.43;;;26.70;;
12228;SDS011;6177;52.402;9.800;2024-03-07T08:02:40;33.00;;;24.40;;
12228;SDS011;6177;52.402;9.800;2024-03-07T08:05:05;37.90;;;26.77;;
12228;SDS011;6177;52.402;9.800;2024-03-07T08:07:31;35.97;;;25.43;;
12228;SDS011;6177;52.402;9.800;2024-03-07T08:09:57;34.40;;;26.67;;
12228;SDS011;6177;52.402;9.800;2024-03-07T08:12:22;35.33;;;26.63;;
12228;SDS011;6177;52.402;9.800;2024-03-07T08:14:48;33.63;;;26.37;;
12228;SDS011;6177;52.402;9.800;2024-03-07T08:17:13;36.17;;;25.07;;
12228;SDS011;6177;52.402;9.800;2024-03-07T08:19:39;36.43;;;26.10;;
12228;SDS011;6177;52.402;9.800;2024-03-07T08:22:05;36.87;;;25.07;;
12228;SDS011;6177;52.402;9.800;2024-03-07T08:24:31;34.87;;;26.10;;
12228;SDS011;6177;52.402;9.800;2024-03-07T08:26:57;34.67;;;24.63;;
12228;SDS011;6177;52.402;9.800;2024-03-07T08:29:22;38.80;;;26.47;;
12228;SDS011;6177;52.402;9.800;2024-03-07T08:31:49;34.37;;;25.23;;
12228;SDS011;6177;52.402;9.800;2024-03-07T08:34:14;37.83;;;25.17;;
12228;SDS011;6177;52.402;9.800;2024-03-07T08:36:40;33.50;;;25.33;;
12228;SDS011;6177;52.402;9.800;2024-03-07T08:39:05;32.93;;;24.30;;
12228;SDS011;6177;52.402;9.800;2024-03-07T08:41:36;36.87;;;25.50;;
12228;SDS011;6177;52.402;9.800;2024-03-07T08:44:06;33.93;;;24.57;;
12228;SDS011;6177;52.402;9.800;2024-03-07T08:46:32;37.93;;;25.20;;
12228;SDS011;6177;52.402;9.800;2024-03-07T08:48:58;30.33;;;23.60;;
12228;SDS011;6177;52.402;9.800;2024-03-07T08:51:24;35.33;;;24.50;;
12228;SDS011;6177;52.402;9.800;2024-03-07T08:53:49;34.53;;;24.83;;
12228;SDS011;6177;52.402;9.800;2024-03-07T08:56:15;34.40;;;25.93;;
12228;SDS011;6177;52.402;9.800;2024-03-07T08:58:41;30.67;;;23.23;;
12228;SDS011;6177;52.402;9.800;2024-03-07T09:01:08;32.87;;;23.77;;
12228;SDS011;6177;52.402;9.800;2024-03-07T09:03:34;32.03;;;23.70;;
12228;SDS011;6177;52.402;9.800;2024-03-07T09:05:59;34.70;;;23.83;;
12228;SDS011;6177;52.402;9.800;2024-03-07T09:08:25;31.97;;;23.13;;
12228;SDS011;6177;52.402;9.800;2024-03-07T09:10:51;33.47;;;23.77;;
12228;SDS011;6177;52.402;9.800;2024-03-07T09:13:20;33.63;;;23.40;;
12228;SDS011;6177;52.402;9.800;2024-03-07T09:15:46;29.10;;;22.47;;
12228;SDS011;6177;52.402;9.800;2024-03-07T09:18:12;30.83;;;22.43;;
12228;SDS011;6177;52.402;9.800;2024-03-07T09:20:38;30.57;;;22.17;;
12228;SDS011;6177;52.402;9.800;2024-03-07T09:23:04;31.00;;;23.10;;
12228;SDS011;6177;52.402;9.800;2024-03-07T09:25:29;30.67;;;22.00;;
12228;SDS011;6177;52.402;9.800;2024-03-07T09:28:01;29.20;;;22.07;;
12228;SDS011;6177;52.402;9.800;2024-03-07T09:30:26;29.70;;;21.63;;
12228;SDS011;6177;52.402;9.800;2024-03-07T09:32:56;26.27;;;20.10;;
12228;SDS011;6177;52.402;9.800;2024-03-07T09:35:21;24.60;;;20.77;;
12228;SDS011;6177;52.402;9.800;2024-03-07T09:37:47;25.70;;;20.10;;
12228;SDS011;6177;52.402;9.800;2024-03-07T09:40:13;26.13;;;20.57;;
12228;SDS011;6177;52.402;9.800;2024-03-07T09:42:43;28.00;;;21.20;;
12228;SDS011;6177;52.402;9.800;2024-03-07T09:45:20;25.63;;;20.40;;
12228;SDS011;6177;52.402;9.800;2024-03-07T09:47:48;29.90;;;21.37;;
12228;SDS011;6177;52.402;9.800;2024-03-07T09:50:15;25.47;;;20.57;;
12228;SDS011;6177;52.402;9.800;2024-03-07T09:52:45;27.60;;;20.10;;
12228;SDS011;6177;52.402;9.800;2024-03-07T09:55:12;29.77;;;20.87;;
12228;SDS011;6177;52.402;9.800;2024-03-07T09:57:38;25.67;;;20.93;;
12228;SDS011;6177;52.402;9.800;2024-03-07T10:00:05;27.20;;;21.27;;
12228;SDS011;6177;52.402;9.800;2024-03-07T10:02:37;31.03;;;21.80;;
12228;SDS011;6177;52.402;9.800;2024-03-07T10:05:06;30.40;;;22.17;;
12228;SDS011;6177;52.402;9.800;2024-03-07T10:07:34;29.27;;;21.47;;
12228;SDS011;6177;52.402;9.800;2024-03-07T10:10:00;30.70;;;21.37;;
12228;SDS011;6177;52.402;9.800;2024-03-07T10:12:25;31.63;;;22.07;;
12228;SDS011;6177;52.402;9.800;2024-03-07T10:14:53;33.60;;;22.97;;
12228;SDS011;6177;52.402;9.800;2024-03-07T10:17:23;34.63;;;23.87;;
12228;SDS011;6177;52.402;9.800;2024-03-07T10:19:54;30.57;;;22.83;;
12228;SDS011;6177;52.402;9.800;2024-03-07T10:22:20;36.90;;;25.53;;
12228;SDS011;6177;52.402;9.800;2024-03-07T10:24:52;37.17;;;24.10;;
12228;SDS011;6177;52.402;9.800;2024-03-07T10:27:19;34.23;;;23.70;;
12228;SDS011;6177;52.402;9.800;2024-03-07T10:29:49;39.70;;;24.87;;
12228;SDS011;6177;52.402;9.800;2024-03-07T10:32:23;37.73;;;25.10;;
12228;SDS011;6177;52.402;9.800;2024-03-07T10:34:53;36.37;;;25.97;;
12228;SDS011;6177;52.402;9.800;2024-03-07T10:37:20;38.97;;;25.00;;
12228;SDS011;6177;52.402;9.800;2024-03-07T10:39:51;36.97;;;24.77;;
12228;SDS011;6177;52.402;9.800;2024-03-07T10:42:17;37.50;;;23.83;;
12228;SDS011;6177;52.402;9.800;2024-03-07T10:44:44;38.77;;;25.10;;
12228;SDS011;6177;52.402;9.800;2024-03-07T10:47:17;39.27;;;25.17;;
12228;SDS011;6177;52.402;9.800;2024-03-07T10:50:06;38.67;;;24.43;;
12228;SDS011;6177;52.402;9.800;2024-03-07T11:01:00;30.90;;;22.40;;
12228;SDS011;6177;52.402;9.800;2024-03-07T11:03:29;36.13;;;23.03;;
12228;SDS011;6177;52.402;9.800;2024-03-07T11:05:58;37.60;;;23.40;;
12228;SDS011;6177;52.402;9.800;2024-03-07T11:08:25;37.83;;;25.93;;
12228;SDS011;6177;52.402;9.800;2024-03-07T11:10:51;37.23;;;24.80;;
12228;SDS011;6177;52.402;9.800;2024-03-07T11:13:17;33.87;;;23.57;;
12228;SDS011;6177;52.402;9.800;2024-03-07T11:15:45;33.10;;;23.83;;
12228;SDS011;6177;52.402;9.800;2024-03-07T11:18:12;32.73;;;23.73;;
12228;SDS011;6177;52.402;9.800;2024-03-07T11:20:38;32.33;;;24.27;;
12228;SDS011;6177;52.402;9.800;2024-03-07T11:25:53;36.07;;;24.10;;
12228;SDS011;6177;52.402;9.800;2024-03-07T11:28:19;36.50;;;23.43;;
12228;SDS011;6177;52.402;9.800;2024-03-07T11:30:45;32.53;;;24.03;;
12228;SDS011;6177;52.402;9.800;2024-03-07T11:33:11;37.47;;;23.97;;
12228;SDS011;6177;52.402;9.800;2024-03-07T11:35:39;32.07;;;23.40;;
12228;SDS011;6177;52.402;9.800;2024-03-07T11:38:06;31.93;;;23.70;;
12228;SDS011;6177;52.402;9.800;2024-03-07T11:43:00;26.37;;;21.60;;
12228;SDS011;6177;52.402;9.800;2024-03-07T11:45:30;32.03;;;23.03;;
12228;SDS011;6177;52.402;9.800;2024-03-07T11:47:59;30.57;;;23.17;;
12228;SDS011;6177;52.402;9.800;2024-03-07T11:50:35;30.40;;;22.30;;
12228;SDS011;6177;52.402;9.800;2024-03-07T11:53:02;28.93;;;21.87;;
12228;SDS011;6177;52.402;9.800;2024-03-07T11:55:31;29.20;;;21.17;;
12228;SDS011;6177;52.402;9.800;2024-03-07T11:58:16;28.87;;;22.00;;
12228;SDS011;6177;52.402;9.800;2024-03-07T12:00:43;27.53;;;22.67;;
12228;SDS011;6177;52.402;9.800;2024-03-07T12:03:12;26.00;;;20.40;;
12228;SDS011;6177;52.402;9.800;2024-03-07T12:05:49;25.37;;;21.03;;
12228;SDS011;6177;52.402;9.800;2024-03-07T12:08:16;26.43;;;20.90;;
12228;SDS011;6177;52.402;9.800;2024-03-07T12:10:42;24.77;;;18.70;;
12228;SDS011;6177;52.402;9.800;2024-03-07T12:13:12;26.60;;;21.03;;
12228;SDS011;6177;52.402;9.800;2024-03-07T12:15:41;23.40;;;19.80;;
12228;SDS011;6177;52.402;9.800;2024-03-07T12:18:07;21.37;;;19.13;;
12228;SDS011;6177;52.402;9.800;2024-03-07T12:20:37;21.77;;;18.93;;
12228;SDS011;6177;52.402;9.800;2024-03-07T12:23:04;25.20;;;19.80;;
12228;SDS011;6177;52.402;9.800;2024-03-07T12:25:36;23.47;;;19.27;;
12228;SDS011;6177;52.402;9.800;2024-03-07T12:28:07;24.30;;;19.67;;
12228;SDS011;6177;52.402;9.800;2024-03-07T12:33:10;23.10;;;18.53;;
12228;SDS011;6177;52.402;9.800;2024-03-07T12:35:39;23.23;;;19.23;;
12228;SDS011;6177;52.402;9.800;2024-03-07T12:38:08;21.40;;;19.10;;
12228;SDS011;6177;52.402;9.800;2024-03-07T12:40:35;26.60;;;19.33;;
12228;SDS011;6177;52.402;9.800;2024-03-07T12:43:02;22.87;;;19.67;;
12228;SDS011;6177;52.402;9.800;2024-03-07T12:45:49;26.67;;;21.10;;
12228;SDS011;6177;52.402;9.800;2024-03-07T12:48:16;23.07;;;20.00;;
12228;SDS011;6177;52.402;9.800;2024-03-07T12:50:44;23.83;;;20.80;;
12228;SDS011;6177;52.402;9.800;2024-03-07T12:53:10;23.67;;;19.63;;
12228;SDS011;6177;52.402;9.800;2024-03-07T12:55:38;23.23;;;20.17;;
12228;SDS011;6177;52.402;9.800;2024-03-07T12:58:07;23.60;;;19.00;;
12228;SDS011;6177;52.402;9.800;2024-03-07T13:00:35;25.13;;;19.93;;
12228;SDS011;6177;52.402;9.800;2024-03-07T13:03:01;23.30;;;19.20;;
12228;SDS011;6177;52.402;9.800;2024-03-07T13:05:26;23.83;;;19.23;;
12228;SDS011;6177;52.402;9.800;2024-03-07T13:07:52;21.53;;;19.27;;
12228;SDS011;6177;52.402;9.800;2024-03-07T13:10:18;27.27;;;19.83;;
12228;SDS011;6177;52.402;9.800;2024-03-07T13:12:49;24.90;;;19.63;;
12228;SDS011;6177;52.402;9.800;2024-03-07T13:15:15;20.73;;;18.37;;
12228;SDS011;6177;52.402;9.800;2024-03-07T13:17:41;20.20;;;17.37;;
12228;SDS011;6177;52.402;9.800;2024-03-07T13:20:10;22.63;;;19.13;;
12228;SDS011;6177;52.402;9.800;2024-03-07T13:22:43;20.30;;;18.30;;
12228;SDS011;6177;52.402;9.800;2024-03-07T13:25:22;20.97;;;18.77;;
12228;SDS011;6177;52.402;9.800;2024-03-07T13:28:04;24.00;;;18.37;;
12228;SDS011;6177;52.402;9.800;2024-03-07T13:30:33;22.13;;;18.43;;
12228;SDS011;6177;52.402;9.800;2024-03-07T13:33:01;19.87;;;17.87;;
12228;SDS011;6177;52.402;9.800;2024-03-07T13:35:28;21.10;;;18.90;;
12228;SDS011;6177;52.402;9.800;2024-03-07T13:37:54;22.47;;;18.67;;
12228;SDS011;6177;52.402;9.800;2024-03-07T13:40:21;19.93;;;17.17;;
12228;SDS011;6177;52.402;9.800;2024-03-07T13:42:54;19.50;;;17.07;;
12228;SDS011;6177;52.402;9.800;2024-03-07T13:45:21;19.27;;;17.33;;
12228;SDS011;6177;52.402;9.800;2024-03-07T13:47:48;19.83;;;16.33;;
12228;SDS011;6177;52.402;9.800;2024-03-07T13:50:16;18.90;;;16.50;;
12228;SDS011;6177;52.402;9.800;2024-03-07T13:52:44;17.67;;;15.87;;
12228;SDS011;6177;52.402;9.800;2024-03-07T13:55:52;20.43;;;16.63;;
12228;SDS011;6177;52.402;9.800;2024-03-07T14:01:17;18.10;;;16.13;;
12228;SDS011;6177;52.402;9.800;2024-03-07T14:31:38;17.20;;;15.50;;
12228;SDS011;6177;52.402;9.800;2024-03-07T14:34:11;17.07;;;15.37;;
12228;SDS011;6177;52.402;9.800;2024-03-07T14:36:46;16.13;;;14.63;;
12228;SDS011;6177;52.402;9.800;2024-03-07T14:39:15;16.97;;;15.40;;
12228;SDS011;6177;52.402;9.800;2024-03-07T14:44:14;16.40;;;14.70;;
12228;SDS011;6177;52.402;9.800;2024-03-07T14:46:42;17.33;;;15.43;;
12228;SDS011;6177;52.402;9.800;2024-03-07T14:49:08;18.47;;;16.30;;
12228;SDS011;6177;52.402;9.800;2024-03-07T14:51:36;17.33;;;15.53;;
12228;SDS011;6177;52.402;9.800;2024-03-07T14:54:03;17.33;;;15.63;;
12228;SDS011;6177;52.402;9.800;2024-03-07T14:56:28;16.70;;;15.03;;
12228;SDS011;6177;52.402;9.800;2024-03-07T14:58:54;18.33;;;15.73;;
12228;SDS011;6177;52.402;9.800;2024-03-07T15:01:19;15.87;;;14.47;;
12228;SDS011;6177;52.402;9.800;2024-03-07T15:03:45;17.17;;;15.10;;
12228;SDS011;6177;52.402;9.800;2024-03-07T15:06:11;15.35;;;13.95;;
12228;SDS011;6177;52.402;9.800;2024-03-07T15:08:40;15.88;;;14.45;;
12228;SDS011;6177;52.402;9.800;2024-03-07T15:13:42;15.85;;;14.23;;
12228;SDS011;6177;52.402;9.800;2024-03-07T15:16:08;17.27;;;15.52;;
12228;SDS011;6177;52.402;9.800;2024-03-07T15:18:34;16.67;;;15.07;;
12228;SDS011;6177;52.402;9.800;2024-03-07T15:20:59;17.02;;;15.45;;
12228;SDS011;6177;52.402;9.800;2024-03-07T15:23:25;16.63;;;14.93;;
12228;SDS011;6177;52.402;9.800;2024-03-07T15:25:50;17.37;;;15.63;;
12228;SDS011;6177;52.402;9.800;2024-03-07T15:28:16;17.87;;;16.00;;
12228;SDS011;6177;52.402;9.800;2024-03-07T15:30:42;16.63;;;14.97;;
12228;SDS011;6177;52.402;9.800;2024-03-07T15:33:07;18.27;;;15.97;;